sensor_id;sensor_type;location;lat;lon;timestamp;P1;durP1;ratioP1;P2;durP2;ratioP2
33285;SDS011;19656;50.096;20.014;2022-09-13T00:00:29;12.90;;;6.70;;
33285;SDS011;19656;50.096;20.014;2022-09-13T00:05:52;13.10;;;6.80;;
33285;SDS011;19656;50.096;20.014;2022-09-13T00:10:57;10.90;;;6.40;;
33285;SDS011;19656;50.096;20.014;2022-09-13T00:16:00;14.80;;;7.40;;
33285;SDS011;19656;50.096;20.014;2022-09-13T00:21:06;11.50;;;7.00;;
33285;SDS011;19656;50.096;20.014;2022-09-13T00:26:14;13.20;;;7.00;;
33285;SDS011;19656;50.096;20.014;2022-09-13T00:31:19;11.70;;;6.50;;
33285;SDS011;19656;50.096;20.014;2022-09-13T00:36:25;10.70;;;7.50;;
33285;SDS011;19656;50.096;20.014;2022-09-13T00:41:28;15.80;;;7.40;;
33285;SDS011;19656;50.096;20.014;2022-09-13T00:46:44;14.80;;;8.90;;
33285;SDS011;19656;50.096;20.014;2022-09-13T00:51:55;12.20;;;7.70;;
33285;SDS011;19656;50.096;20.014;2022-09-13T00:57:01;10.90;;;7.20;;
33285;SDS011;19656;50.096;20.014;2022-09-13T01:02:06;11.70;;;7.20;;
33285;SDS011;19656;50.096;20.014;2022-09-13T01:07:10;11.00;;;8.00;;
33285;SDS011;19656;50.096;20.014;2022-09-13T01:12:21;11.70;;;6.90;;
33285;SDS011;19656;50.096;20.014;2022-09-13T01:17:27;11.50;;;7.50;;
33285;SDS011;19656;50.096;20.014;2022-09-13T01:38:57;9.80;;;7.70;;
33285;SDS011;19656;50.096;20.014;2022-09-13T01:44:18;12.40;;;8.60;;
33285;SDS011;19656;50.096;20.014;2022-09-13T01:55:10;14.40;;;8.00;;
33285;SDS011;19656;50.096;20.014;2022-09-13T02:00:22;11.10;;;8.40;;
33285;SDS011;19656;50.096;20.014;2022-09-13T02:10:41;14.00;;;8.40;;
33285;SDS011;19656;50.096;20.014;2022-09-13T02:15:50;12.80;;;8.50;;
33285;SDS011;19656;50.096;20.014;2022-09-13T02:21:00;15.20;;;10.00;;
33285;SDS011;19656;50.096;20.014;2022-09-13T02:26:09;14.10;;;9.60;;
33285;SDS011;19656;50.096;20.014;2022-09-13T02:31:17;12.20;;;9.10;;
33285;SDS011;19656;50.096;20.014;2022-09-13T02:36:27;11.60;;;8.90;;
33285;SDS011;19656;50.096;20.014;2022-09-13T03:02:54;14.30;;;9.20;;
33285;SDS011;19656;50.096;20.014;2022-09-13T03:18:48;14.50;;;9.60;;
33285;SDS011;19656;50.096;20.014;2022-09-13T03:29:25;14.90;;;9.30;;
33285;SDS011;19656;50.096;20.014;2022-09-13T03:34:37;17.30;;;9.60;;
33285;SDS011;19656;50.096;20.014;2022-09-13T03:39:51;13.70;;;9.90;;
33285;SDS011;19656;50.096;20.014;2022-09-13T03:44:59;16.40;;;10.30;;
33285;SDS011;19656;50.096;20.014;2022-09-13T03:50:05;15.00;;;10.10;;
33285;SDS011;19656;50.096;20.014;2022-09-13T03:55:10;16.20;;;9.70;;
33285;SDS011;19656;50.096;20.014;2022-09-13T04:00:13;14.30;;;9.00;;
33285;SDS011;19656;50.096;20.014;2022-09-13T04:05:16;17.40;;;9.20;;
33285;SDS011;19656;50.096;20.014;2022-09-13T04:10:20;15.80;;;9.10;;
33285;SDS011;19656;50.096;20.014;2022-09-13T04:15:23;14.70;;;9.60;;
33285;SDS011;19656;50.096;20.014;2022-09-13T04:20:26;12.90;;;9.60;;
33285;SDS011;19656;50.096;20.014;2022-09-13T04:25:29;14.80;;;10.40;;
33285;SDS011;19656;50.096;20.014;2022-09-13T04:30:32;12.70;;;10.10;;
33285;SDS011;19656;50.096;20.014;2022-09-13T04:35:35;15.60;;;9.60;;
33285;SDS011;19656;50.096;20.014;2022-09-13T04:40:37;19.10;;;9.70;;
33285;SDS011;19656;50.096;20.014;2022-09-13T04:45:41;19.40;;;10.10;;
33285;SDS011;19656;50.096;20.014;2022-09-13T04:50:44;14.50;;;9.70;;
33285;SDS011;19656;50.096;20.014;2022-09-13T04:55:49;15.00;;;9.80;;
33285;SDS011;19656;50.096;20.014;2022-09-13T05:00:52;19.90;;;10.20;;
33285;SDS011;19656;50.096;20.014;2022-09-13T05:06:08;15.40;;;10.50;;
33285;SDS011;19656;50.096;20.014;2022-09-13T05:11:14;15.30;;;9.80;;
33285;SDS011;19656;50.096;20.014;2022-09-13T05:16:17;14.80;;;10.00;;
33285;SDS011;19656;50.096;20.014;2022-09-13T05:21:20;15.00;;;9.70;;
33285;SDS011;19656;50.096;20.014;2022-09-13T05:26:24;16.70;;;9.60;;
33285;SDS011;19656;50.096;20.014;2022-09-13T05:36:33;16.80;;;10.50;;
33285;SDS011;19656;50.096;20.014;2022-09-13T05:41:36;16.40;;;11.00;;
33285;SDS011;19656;50.096;20.014;2022-09-13T05:46:40;17.00;;;10.40;;
33285;SDS011;19656;50.096;20.014;2022-09-13T05:51:44;16.10;;;10.50;;
33285;SDS011;19656;50.096;20.014;2022-09-13T05:56:47;14.40;;;10.20;;
33285;SDS011;19656;50.096;20.014;2022-09-13T06:01:50;14.40;;;10.20;;
33285;SDS011;19656;50.096;20.014;2022-09-13T06:06:53;16.40;;;9.50;;
33285;SDS011;19656;50.096;20.014;2022-09-13T06:11:56;16.10;;;10.50;;
33285;SDS011;19656;50.096;20.014;2022-09-13T06:16:59;15.40;;;10.70;;
33285;SDS011;19656;50.096;20.014;2022-09-13T06:22:02;13.40;;;10.50;;
33285;SDS011;19656;50.096;20.014;2022-09-13T06:27:05;15.70;;;10.40;;
33285;SDS011;19656;50.096;20.014;2022-09-13T06:32:08;13.40;;;9.70;;
33285;SDS011;19656;50.096;20.014;2022-09-13T06:37:11;16.00;;;9.80;;
33285;SDS011;19656;50.096;20.014;2022-09-13T06:42:14;14.70;;;9.40;;
33285;SDS011;19656;50.096;20.014;2022-09-13T06:47:18;18.50;;;9.60;;
33285;SDS011;19656;50.096;20.014;2022-09-13T06:52:22;20.70;;;9.30;;
33285;SDS011;19656;50.096;20.014;2022-09-13T06:57:28;13.60;;;10.20;;
33285;SDS011;19656;50.096;20.014;2022-09-13T07:02:32;17.60;;;9.60;;
33285;SDS011;19656;50.096;20.014;2022-09-13T07:07:35;15.10;;;9.40;;
33285;SDS011;19656;50.096;20.014;2022-09-13T07:12:41;13.60;;;8.30;;
33285;SDS011;19656;50.096;20.014;2022-09-13T07:17:44;14.50;;;9.10;;
33285;SDS011;19656;50.096;20.014;2022-09-13T07:22:46;15.30;;;8.80;;
33285;SDS011;19656;50.096;20.014;2022-09-13T07:27:49;17.60;;;9.20;;
33285;SDS011;19656;50.096;20.014;2022-09-13T07:32:52;12.40;;;7.70;;
33285;SDS011;19656;50.096;20.014;2022-09-13T07:37:55;12.30;;;7.90;;
33285;SDS011;19656;50.096;20.014;2022-09-13T07:42:58;9.90;;;7.60;;
33285;SDS011;19656;50.096;20.014;2022-09-13T07:48:01;13.10;;;7.70;;
33285;SDS011;19656;50.096;20.014;2022-09-13T07:53:04;14.90;;;7.50;;
33285;SDS011;19656;50.096;20.014;2022-09-13T07:58:07;10.60;;;7.20;;
33285;SDS011;19656;50.096;20.014;2022-09-13T08:03:10;10.40;;;7.40;;
33285;SDS011;19656;50.096;20.014;2022-09-13T08:08:13;8.90;;;7.00;;
33285;SDS011;19656;50.096;20.014;2022-09-13T08:13:16;16.00;;;7.10;;
33285;SDS011;19656;50.096;20.014;2022-09-13T08:18:20;10.60;;;7.00;;
33285;SDS011;19656;50.096;20.014;2022-09-13T08:23:23;10.10;;;6.10;;
33285;SDS011;19656;50.096;20.014;2022-09-13T08:28:27;10.40;;;5.80;;
33285;SDS011;19656;50.096;20.014;2022-09-13T08:33:30;10.30;;;5.80;;
33285;SDS011;19656;50.096;20.014;2022-09-13T08:38:33;13.50;;;5.80;;
33285;SDS011;19656;50.096;20.014;2022-09-13T08:43:39;11.10;;;5.20;;
33285;SDS011;19656;50.096;20.014;2022-09-13T08:48:47;7.80;;;5.10;;
33285;SDS011;19656;50.096;20.014;2022-09-13T08:53:54;9.70;;;5.20;;
33285;SDS011;19656;50.096;20.014;2022-09-13T09:04:14;6.60;;;3.40;;
33285;SDS011;19656;50.096;20.014;2022-09-13T09:09:48;30.20;;;22.10;;
33285;SDS011;19656;50.096;20.014;2022-09-13T09:15:18;10.20;;;5.60;;
33285;SDS011;19656;50.096;20.014;2022-09-13T09:20:35;6.20;;;2.90;;
33285;SDS011;19656;50.096;20.014;2022-09-13T09:25:42;5.30;;;3.60;;
33285;SDS011;19656;50.096;20.014;2022-09-13T09:41:30;5.30;;;2.40;;
33285;SDS011;19656;50.096;20.014;2022-09-13T09:46:36;4.70;;;2.30;;
33285;SDS011;19656;50.096;20.014;2022-09-13T09:51:42;3.70;;;2.50;;
33285;SDS011;19656;50.096;20.014;2022-09-13T09:56:51;6.30;;;2.60;;
33285;SDS011;19656;50.096;20.014;2022-09-13T10:01:56;3.80;;;2.20;;
33285;SDS011;19656;50.096;20.014;2022-09-13T10:07:08;6.20;;;2.20;;
33285;SDS011;19656;50.096;20.014;2022-09-13T10:12:24;3.20;;;2.10;;
33285;SDS011;19656;50.096;20.014;2022-09-13T10:17:29;4.30;;;2.00;;
33285;SDS011;19656;50.096;20.014;2022-09-13T10:22:34;17.70;;;10.70;;
33285;SDS011;19656;50.096;20.014;2022-09-13T10:27:38;2.90;;;2.20;;
33285;SDS011;19656;50.096;20.014;2022-09-13T10:32:44;2.40;;;1.90;;
33285;SDS011;19656;50.096;20.014;2022-09-13T10:37:57;2.40;;;2.00;;
33285;SDS011;19656;50.096;20.014;2022-09-13T10:43:01;4.70;;;2.30;;
33285;SDS011;19656;50.096;20.014;2022-09-13T10:48:11;4.00;;;2.30;;
33285;SDS011;19656;50.096;20.014;2022-09-13T10:59:20;4.40;;;2.40;;
33285;SDS011;19656;50.096;20.014;2022-09-13T11:20:30;3.20;;;2.10;;
33285;SDS011;19656;50.096;20.014;2022-09-13T11:25:50;4.40;;;2.30;;
33285;SDS011;19656;50.096;20.014;2022-09-13T11:36:57;28.60;;;18.40;;
33285;SDS011;19656;50.096;20.014;2022-09-13T11:58:11;2.40;;;1.90;;
33285;SDS011;19656;50.096;20.014;2022-09-13T12:03:24;3.10;;;2.00;;
33285;SDS011;19656;50.096;20.014;2022-09-13T12:08:35;2.90;;;1.90;;
33285;SDS011;19656;50.096;20.014;2022-09-13T12:13:47;3.80;;;1.80;;
33285;SDS011;19656;50.096;20.014;2022-09-13T12:19:01;2.40;;;1.40;;
33285;SDS011;19656;50.096;20.014;2022-09-13T12:29:27;3.00;;;2.20;;
33285;SDS011;19656;50.096;20.014;2022-09-13T12:34:42;2.30;;;1.80;;
33285;SDS011;19656;50.096;20.014;2022-09-13T12:50:59;3.30;;;1.60;;
33285;SDS011;19656;50.096;20.014;2022-09-13T13:01:19;4.10;;;1.50;;
33285;SDS011;19656;50.096;20.014;2022-09-13T13:06:38;3.00;;;1.60;;
33285;SDS011;19656;50.096;20.014;2022-09-13T13:11:50;4.80;;;1.70;;
33285;SDS011;19656;50.096;20.014;2022-09-13T13:17:32;3.00;;;2.00;;
33285;SDS011;19656;50.096;20.014;2022-09-13T13:27:46;2.90;;;1.90;;
33285;SDS011;19656;50.096;20.014;2022-09-13T13:33:10;3.80;;;1.60;;
33285;SDS011;19656;50.096;20.014;2022-09-13T13:43:43;2.80;;;1.90;;
33285;SDS011;19656;50.096;20.014;2022-09-13T13:48:46;3.20;;;1.70;;
33285;SDS011;19656;50.096;20.014;2022-09-13T13:53:56;2.40;;;1.90;;
33285;SDS011;19656;50.096;20.014;2022-09-13T13:59:03;3.20;;;1.70;;
33285;SDS011;19656;50.096;20.014;2022-09-13T14:04:31;3.30;;;1.80;;
33285;SDS011;19656;50.096;20.014;2022-09-13T14:09:57;2.60;;;2.10;;
33285;SDS011;19656;50.096;20.014;2022-09-13T14:20:36;3.00;;;2.10;;
33285;SDS011;19656;50.096;20.014;2022-09-13T14:25:39;3.20;;;2.10;;
33285;SDS011;19656;50.096;20.014;2022-09-13T14:30:42;2.40;;;1.80;;
33285;SDS011;19656;50.096;20.014;2022-09-13T14:35:47;3.00;;;2.30;;
33285;SDS011;19656;50.096;20.014;2022-09-13T14:41:15;2.90;;;2.50;;
33285;SDS011;19656;50.096;20.014;2022-09-13T14:51:45;3.80;;;2.50;;
33285;SDS011;19656;50.096;20.014;2022-09-13T14:56:55;4.70;;;2.30;;
33285;SDS011;19656;50.096;20.014;2022-09-13T15:02:13;5.40;;;2.50;;
33285;SDS011;19656;50.096;20.014;2022-09-13T15:07:32;3.20;;;2.60;;
33285;SDS011;19656;50.096;20.014;2022-09-13T15:12:51;3.50;;;2.70;;
33285;SDS011;19656;50.096;20.014;2022-09-13T15:23:28;2.60;;;2.20;;
33285;SDS011;19656;50.096;20.014;2022-09-13T15:33:45;3.10;;;2.50;;
33285;SDS011;19656;50.096;20.014;2022-09-13T15:39:40;3.80;;;2.50;;
33285;SDS011;19656;50.096;20.014;2022-09-13T15:44:21;7.50;;;3.50;;
33285;SDS011;19656;50.096;20.014;2022-09-13T15:49:26;4.90;;;2.90;;
33285;SDS011;19656;50.096;20.014;2022-09-13T15:54:37;4.60;;;2.80;;
33285;SDS011;19656;50.096;20.014;2022-09-13T15:59:42;6.10;;;3.00;;
33285;SDS011;19656;50.096;20.014;2022-09-13T16:04:45;5.00;;;3.10;;
33285;SDS011;19656;50.096;20.014;2022-09-13T16:09:49;3.70;;;2.80;;
33285;SDS011;19656;50.096;20.014;2022-09-13T16:14:52;6.30;;;2.70;;
33285;SDS011;19656;50.096;20.014;2022-09-13T16:19:56;6.00;;;3.70;;
33285;SDS011;19656;50.096;20.014;2022-09-13T16:24:59;5.70;;;3.30;;
33285;SDS011;19656;50.096;20.014;2022-09-13T16:36:16;5.00;;;3.40;;
33285;SDS011;19656;50.096;20.014;2022-09-13T16:41:19;5.30;;;3.30;;
33285;SDS011;19656;50.096;20.014;2022-09-13T16:46:22;7.00;;;3.60;;
33285;SDS011;19656;50.096;20.014;2022-09-13T16:51:25;5.50;;;3.40;;
33285;SDS011;19656;50.096;20.014;2022-09-13T16:56:28;5.90;;;3.30;;
33285;SDS011;19656;50.096;20.014;2022-09-13T17:01:32;7.90;;;3.50;;
33285;SDS011;19656;50.096;20.014;2022-09-13T17:06:35;6.40;;;3.10;;
33285;SDS011;19656;50.096;20.014;2022-09-13T17:11:40;8.00;;;3.20;;
33285;SDS011;19656;50.096;20.014;2022-09-13T17:16:45;5.30;;;3.60;;
33285;SDS011;19656;50.096;20.014;2022-09-13T17:21:51;7.40;;;3.60;;
33285;SDS011;19656;50.096;20.014;2022-09-13T17:26:56;7.20;;;3.30;;
33285;SDS011;19656;50.096;20.014;2022-09-13T17:32:00;7.60;;;3.80;;
33285;SDS011;19656;50.096;20.014;2022-09-13T17:37:04;6.90;;;3.70;;
33285;SDS011;19656;50.096;20.014;2022-09-13T17:42:08;11.50;;;4.10;;
33285;SDS011;19656;50.096;20.014;2022-09-13T17:47:12;6.00;;;3.70;;
33285;SDS011;19656;50.096;20.014;2022-09-13T17:52:16;9.70;;;4.20;;
33285;SDS011;19656;50.096;20.014;2022-09-13T17:57:18;8.60;;;4.20;;
33285;SDS011;19656;50.096;20.014;2022-09-13T18:02:21;5.80;;;4.00;;
33285;SDS011;19656;50.096;20.014;2022-09-13T18:07:25;8.30;;;4.60;;
33285;SDS011;19656;50.096;20.014;2022-09-13T18:12:28;6.40;;;4.10;;
33285;SDS011;19656;50.096;20.014;2022-09-13T18:17:31;9.00;;;4.20;;
33285;SDS011;19656;50.096;20.014;2022-09-13T18:22:34;5.50;;;4.00;;
33285;SDS011;19656;50.096;20.014;2022-09-13T18:27:37;5.60;;;4.20;;
33285;SDS011;19656;50.096;20.014;2022-09-13T18:32:40;7.70;;;4.40;;
33285;SDS011;19656;50.096;20.014;2022-09-13T18:37:43;10.30;;;4.50;;
33285;SDS011;19656;50.096;20.014;2022-09-13T18:42:46;6.90;;;4.30;;
33285;SDS011;19656;50.096;20.014;2022-09-13T18:47:49;8.50;;;4.20;;
33285;SDS011;19656;50.096;20.014;2022-09-13T18:52:52;6.90;;;4.30;;
33285;SDS011;19656;50.096;20.014;2022-09-13T18:57:55;7.10;;;4.60;;
33285;SDS011;19656;50.096;20.014;2022-09-13T19:03:00;6.50;;;4.20;;
33285;SDS011;19656;50.096;20.014;2022-09-13T19:08:14;7.10;;;4.30;;
33285;SDS011;19656;50.096;20.014;2022-09-13T19:13:17;7.90;;;4.80;;
33285;SDS011;19656;50.096;20.014;2022-09-13T19:18:20;6.20;;;4.30;;
33285;SDS011;19656;50.096;20.014;2022-09-13T19:23:25;5.30;;;4.20;;
33285;SDS011;19656;50.096;20.014;2022-09-13T19:28:53;6.90;;;4.20;;
33285;SDS011;19656;50.096;20.014;2022-09-13T19:34:01;5.40;;;3.80;;
33285;SDS011;19656;50.096;20.014;2022-09-13T19:39:09;6.10;;;4.10;;
33285;SDS011;19656;50.096;20.014;2022-09-13T19:44:13;5.60;;;4.00;;
33285;SDS011;19656;50.096;20.014;2022-09-13T19:49:16;6.90;;;3.90;;
33285;SDS011;19656;50.096;20.014;2022-09-13T19:54:20;6.20;;;3.80;;
33285;SDS011;19656;50.096;20.014;2022-09-13T19:59:24;7.20;;;4.20;;
33285;SDS011;19656;50.096;20.014;2022-09-13T20:04:27;5.50;;;4.10;;
33285;SDS011;19656;50.096;20.014;2022-09-13T20:09:32;6.30;;;3.90;;
33285;SDS011;19656;50.096;20.014;2022-09-13T20:14:35;4.70;;;3.90;;
33285;SDS011;19656;50.096;20.014;2022-09-13T20:19:40;7.30;;;4.10;;
33285;SDS011;19656;50.096;20.014;2022-09-13T20:24:51;6.90;;;4.10;;
33285;SDS011;19656;50.096;20.014;2022-09-13T20:29:55;8.10;;;4.50;;
33285;SDS011;19656;50.096;20.014;2022-09-13T20:35:00;11.70;;;4.60;;
33285;SDS011;19656;50.096;20.014;2022-09-13T20:40:04;6.70;;;4.50;;
33285;SDS011;19656;50.096;20.014;2022-09-13T20:45:10;9.40;;;4.30;;
33285;SDS011;19656;50.096;20.014;2022-09-13T20:50:13;7.60;;;4.20;;
33285;SDS011;19656;50.096;20.014;2022-09-13T20:55:16;5.20;;;4.40;;
33285;SDS011;19656;50.096;20.014;2022-09-13T21:00:19;7.80;;;4.30;;
33285;SDS011;19656;50.096;20.014;2022-09-13T21:05:22;6.20;;;4.10;;
33285;SDS011;19656;50.096;20.014;2022-09-13T21:10:25;7.90;;;4.50;;
33285;SDS011;19656;50.096;20.014;2022-09-13T21:15:28;7.30;;;4.50;;
33285;SDS011;19656;50.096;20.014;2022-09-13T21:20:31;6.50;;;4.40;;
33285;SDS011;19656;50.096;20.014;2022-09-13T21:25:35;8.00;;;4.40;;
33285;SDS011;19656;50.096;20.014;2022-09-13T21:30:38;7.00;;;4.20;;
33285;SDS011;19656;50.096;20.014;2022-09-13T21:35:42;10.10;;;4.30;;
33285;SDS011;19656;50.096;20.014;2022-09-13T21:41:00;7.10;;;4.30;;
33285;SDS011;19656;50.096;20.014;2022-09-13T21:46:09;5.40;;;4.10;;
33285;SDS011;19656;50.096;20.014;2022-09-13T21:51:19;7.70;;;4.10;;
33285;SDS011;19656;50.096;20.014;2022-09-13T21:56:29;5.90;;;4.10;;
33285;SDS011;19656;50.096;20.014;2022-09-13T22:01:35;5.80;;;4.20;;
33285;SDS011;19656;50.096;20.014;2022-09-13T22:06:44;6.10;;;4.40;;
33285;SDS011;19656;50.096;20.014;2022-09-13T22:11:48;5.40;;;3.80;;
33285;SDS011;19656;50.096;20.014;2022-09-13T22:16:52;6.60;;;3.80;;
33285;SDS011;19656;50.096;20.014;2022-09-13T22:21:56;5.60;;;4.20;;
33285;SDS011;19656;50.096;20.014;2022-09-13T22:27:02;7.00;;;4.30;;
33285;SDS011;19656;50.096;20.014;2022-09-13T22:32:06;7.30;;;4.50;;
33285;SDS011;19656;50.096;20.014;2022-09-13T22:37:09;6.80;;;4.80;;
33285;SDS011;19656;50.096;20.014;2022-09-13T22:42:12;5.70;;;4.60;;
33285;SDS011;19656;50.096;20.014;2022-09-13T22:47:15;7.80;;;4.90;;
33285;SDS011;19656;50.096;20.014;2022-09-13T22:52:18;7.50;;;4.80;;
33285;SDS011;19656;50.096;20.014;2022-09-13T22:57:21;8.70;;;5.30;;
33285;SDS011;19656;50.096;20.014;2022-09-13T23:02:24;8.70;;;5.20;;
33285;SDS011;19656;50.096;20.014;2022-09-13T23:07:26;7.80;;;5.20;;
33285;SDS011;19656;50.096;20.014;2022-09-13T23:12:29;6.70;;;5.40;;
33285;SDS011;19656;50.096;20.014;2022-09-13T23:17:32;10.60;;;5.50;;
33285;SDS011;19656;50.096;20.014;2022-09-13T23:22:35;7.50;;;5.20;;
33285;SDS011;19656;50.096;20.014;2022-09-13T23:27:38;6.70;;;5.30;;
33285;SDS011;19656;50.096;20.014;2022-09-13T23:32:41;11.90;;;5.30;;
33285;SDS011;19656;50.096;20.014;2022-09-13T23:37:46;9.90;;;5.90;;
33285;SDS011;19656;50.096;20.014;2022-09-13T23:42:50;7.50;;;5.10;;
33285;SDS011;19656;50.096;20.014;2022-09-13T23:47:53;8.00;;;5.20;;
33285;SDS011;19656;50.096;20.014;2022-09-13T23:52:55;9.00;;;5.60;;
33285;SDS011;19656;50.096;20.014;2022-09-13T23:57:58;10.00;;;5.40;;
